Time;durP1;ratioP1;P1;durP2;ratioP2;P2;SDS_P1;SDS_P2;PMS_P1;PMS_P2;Temp;Humidity;BMP_temperature;BMP_pressure;BME280_temperature;BME280_humidity;BME280_pressure;Samples;Min_cycle;Max_cycle;Signal;HPM_P1;HPM_P2
2021/05/23 00:00:42;;;;;;;;;0.00;0.00;;;;;13.48;56.51;100774.16;5026375;28;45580;-78
2021/05/23 00:03:11;;;;;;;;;1.67;1.00;;;;;13.43;56.34;100776.09;5014221;28;45496;-77
2021/05/23 00:05:39;;;;;;;;;0.33;0.33;;;;;13.44;56.65;100775.16;5011999;28;45577;-78
2021/05/23 00:08:08;;;;;;;;;1.00;1.00;;;;;13.41;57.24;100774.41;5012814;28;45531;-77
2021/05/23 00:10:38;;;;;;;;;1.00;1.00;;;;;13.38;56.86;100777.19;5014340;28;45519;-77
2021/05/23 00:13:06;;;;;;;;;2.00;0.00;;;;;13.35;57.06;100783.47;5013209;28;45371;-77
2021/05/23 00:15:36;;;;;;;;;0.33;0.33;;;;;13.35;57.03;100782.59;5014628;28;45554;-77
2021/05/23 00:18:02;;;;;;;;;0.00;0.00;;;;;13.33;57.10;100790.63;5023635;28;47698;-77
2021/05/23 00:20:28;;;;;;;;;0.33;0.00;;;;;13.31;57.86;100795.13;5009662;28;45434;-77
2021/05/23 00:22:53;;;;;;;;;0.00;0.00;;;;;13.29;57.53;100794.31;5013119;28;45538;-76
2021/05/23 00:25:20;;;;;;;;;1.33;1.33;;;;;13.28;57.33;100794.38;5014845;28;45594;-77
2021/05/23 00:27:46;;;;;;;;;1.00;1.00;;;;;13.24;57.37;100791.81;5013808;28;46843;-78
2021/05/23 00:30:13;;;;;;;;;1.00;1.00;;;;;13.23;57.26;100798.06;5013077;28;46090;-78
2021/05/23 00:32:39;;;;;;;;;1.00;1.00;;;;;13.18;57.70;100796.41;5014155;28;45410;-76
2021/05/23 00:35:06;;;;;;;;;0.00;0.00;;;;;13.12;57.87;100793.94;5021519;28;45367;-77
2021/05/23 00:37:31;;;;;;;;;0.00;0.00;;;;;13.08;57.94;100797.59;5012750;28;46661;-78
2021/05/23 00:39:56;;;;;;;;;2.00;2.00;;;;;13.06;57.75;100797.66;5012205;28;45824;-76
2021/05/23 00:42:22;;;;;;;;;1.00;1.00;;;;;13.04;57.65;100799.50;5013232;28;45432;-77
2021/05/23 00:44:47;;;;;;;;;2.00;2.00;;;;;13.06;57.12;100796.78;5014902;28;45470;-76
2021/05/23 00:47:12;;;;;;;;;4.67;0.67;;;;;13.04;57.64;100798.63;5010234;28;45678;-76
2021/05/23 00:49:38;;;;;;;;;3.33;2.00;;;;;13.07;57.45;100809.19;5013670;28;45646;-78
2021/05/23 00:52:07;;;;;;;;;1.00;1.00;;;;;13.00;57.62;100800.53;5014220;28;45545;-77
2021/05/23 00:54:34;;;;;;;;;0.67;0.67;;;;;12.96;57.75;100805.09;5014679;28;45642;-76
2021/05/23 00:57:00;;;;;;;;;1.00;1.00;;;;;12.91;58.12;100807.00;5014276;28;45761;-75
2021/05/23 00:59:26;;;;;;;;;1.00;1.00;;;;;12.92;58.22;100806.06;5012182;28;46542;-77
2021/05/23 01:01:54;;;;;;;;;0.67;0.67;;;;;12.91;58.46;100800.78;5013872;28;45413;-77
2021/05/23 01:04:20;;;;;;;;;0.00;0.00;;;;;12.92;58.15;100803.41;5012758;28;45449;-78
2021/05/23 01:06:45;;;;;;;;;2.00;2.00;;;;;12.85;57.97;100788.53;5012192;28;48420;-77
2021/05/23 01:09:11;;;;;;;;;0.00;0.00;;;;;12.92;58.80;100800.75;5012733;28;45714;-77
2021/05/23 01:11:39;;;;;;;;;0.67;0.67;;;;;12.94;58.52;100798.03;5012821;28;45526;-77
2021/05/23 01:14:22;;;;;;;;;2.00;1.00;;;;;12.95;57.90;100802.44;5012591;28;45636;-79
2021/05/23 01:16:52;;;;;;;;;1.00;1.00;;;;;13.01;58.03;100806.72;5017840;28;47921;-77
2021/05/23 01:19:37;;;;;;;;;1.67;1.67;;;;;12.96;57.84;100788.22;5008313;28;46199;-77
2021/05/23 01:22:13;;;;;;;;;1.00;1.00;;;;;12.99;57.77;100798.78;5007106;28;45804;-77
2021/05/23 01:24:41;;;;;;;;;1.33;1.00;;;;;12.95;57.70;100808.63;5012162;28;45568;-77
2021/05/23 01:27:10;;;;;;;;;1.00;1.00;;;;;12.90;58.12;100801.72;5013504;28;46223;-78
2021/05/23 01:29:36;;;;;;;;;1.00;1.00;;;;;12.87;58.51;100799.16;5012436;28;45758;-77
2021/05/23 01:32:01;;;;;;;;;1.00;1.00;;;;;12.88;57.97;100804.44;5013602;28;45431;-78
2021/05/23 01:34:28;;;;;;;;;0.00;0.00;;;;;12.87;58.32;100799.16;5013629;28;45591;-78
2021/05/23 01:36:57;;;;;;;;;2.00;1.00;;;;;12.90;58.18;100812.38;5012874;28;45557;-78
2021/05/23 01:39:23;;;;;;;;;0.00;0.00;;;;;12.89;58.16;100810.63;5013723;28;45406;-78
2021/05/23 01:41:50;;;;;;;;;1.00;0.00;;;;;12.91;58.13;100811.44;5013331;28;45679;-77
2021/05/23 01:44:16;;;;;;;;;0.00;0.00;;;;;12.90;58.11;100817.69;5013638;28;45754;-77
2021/05/23 01:46:42;;;;;;;;;1.00;0.00;;;;;12.84;57.98;100813.44;5011641;28;47763;-76
2021/05/23 01:49:09;;;;;;;;;3.00;1.00;;;;;12.83;58.04;100822.34;5013413;28;45489;-77
2021/05/23 01:51:34;;;;;;;;;0.00;0.00;;;;;12.76;58.50;100806.59;5013335;28;45561;-77
2021/05/23 01:54:00;;;;;;;;;1.00;1.00;;;;;12.82;57.94;100822.38;5013416;28;45496;-78
2021/05/23 01:56:25;;;;;;;;;0.00;0.00;;;;;12.84;58.13;100820.56;5013274;28;45674;-76
2021/05/23 01:58:51;;;;;;;;;1.33;1.00;;;;;12.86;58.14;100818.72;5014201;28;45569;-75
2021/05/23 02:01:17;;;;;;;;;1.00;0.00;;;;;12.84;57.89;100818.75;5014724;28;45497;-78
2021/05/23 02:03:42;;;;;;;;;0.00;0.00;;;;;12.80;58.39;100813.56;5013971;28;45462;-77
2021/05/23 02:06:08;;;;;;;;;0.00;0.00;;;;;12.83;57.97;100816.13;5012522;28;48241;-77
2021/05/23 02:08:33;;;;;;;;;0.67;0.33;;;;;12.85;58.03;100822.31;5013566;28;45446;-77
2021/05/23 02:11:07;;;;;;;;;1.67;0.33;;;;;12.88;57.98;100823.06;5011513;28;45445;-78
2021/05/23 02:13:32;;;;;;;;;0.33;0.33;;;;;12.92;58.02;100823.84;5014702;28;44952;-77
2021/05/23 02:15:58;;;;;;;;;1.00;1.00;;;;;12.93;58.17;100829.13;5012636;28;47571;-78
2021/05/23 02:18:24;;;;;;;;;1.33;0.00;;;;;12.97;58.04;100821.94;5013561;28;45500;-77
2021/05/23 02:20:49;;;;;;;;;1.67;1.67;;;;;13.02;58.11;100827.13;5013747;28;45403;-77
2021/05/23 02:23:19;;;;;;;;;0.33;0.33;;;;;13.03;57.72;100829.72;5013030;28;45553;-76
2021/05/23 02:25:44;;;;;;;;;0.00;0.00;;;;;13.06;57.62;100826.09;5011596;28;47834;-76
2021/05/23 02:28:11;;;;;;;;;1.67;1.67;;;;;13.06;58.07;100826.97;5012689;28;45440;-76
2021/05/23 02:30:46;;;;;;;;;1.00;1.00;;;;;13.09;57.57;100832.22;5012973;28;45505;-77
2021/05/23 02:33:14;;;;;;;;;1.67;1.33;;;;;13.07;57.70;100839.38;5011724;28;45644;-77
2021/05/23 02:35:46;;;;;;;;;0.00;0.00;;;;;13.07;57.45;100838.50;5010645;28;46987;-77
2021/05/23 02:38:13;;;;;;;;;1.00;1.00;;;;;13.04;57.83;100836.81;5011141;28;46543;-76
2021/05/23 02:40:40;;;;;;;;;2.33;0.33;;;;;13.04;57.44;100834.13;5010971;28;45554;-76
2021/05/23 02:43:07;;;;;;;;;0.67;0.33;;;;;13.02;57.30;100837.78;5006449;28;45503;-76
2021/05/23 02:45:34;;;;;;;;;0.67;0.67;;;;;13.01;57.36;100836.91;5010818;28;45733;-78
2021/05/23 02:48:00;;;;;;;;;0.00;0.00;;;;;13.02;57.41;100838.66;5012620;28;45462;-77
2021/05/23 02:50:28;;;;;;;;;1.00;1.00;;;;;13.01;57.59;100841.34;5011843;28;45466;-78
2021/05/23 02:52:54;;;;;;;;;1.00;1.00;;;;;13.04;57.75;100844.78;5012092;28;45680;-79
2021/05/23 02:55:20;;;;;;;;;2.00;1.00;;;;;13.07;57.51;100842.03;5012654;28;45750;-76
2021/05/23 02:57:46;;;;;;;;;0.00;0.00;;;;;13.11;57.41;100845.50;5010936;28;45711;-77
2021/05/23 03:00:14;;;;;;;;;0.00;0.00;;;;;13.05;57.32;100833.22;5012397;28;45545;-77
2021/05/23 03:02:40;;;;;;;;;1.67;1.67;;;;;13.10;57.39;100844.63;5012535;28;45489;-78
2021/05/23 03:05:11;;;;;;;;;1.67;1.67;;;;;13.05;57.47;100843.88;5010491;28;47725;-77
2021/05/23 03:07:42;;;;;;;;;1.00;1.00;;;;;13.11;57.46;100843.72;5011397;28;45854;-77
2021/05/23 03:10:12;;;;;;;;;0.33;0.33;;;;;13.10;57.76;100844.63;5012089;28;45573;-75
2021/05/23 03:12:38;;;;;;;;;0.67;0.67;;;;;13.15;57.73;100844.47;5011123;28;45506;-78
2021/05/23 03:15:05;;;;;;;;;0.00;0.00;;;;;13.14;57.39;100851.59;5012600;28;48966;-77
2021/05/23 03:17:31;;;;;;;;;0.00;0.00;;;;;13.16;57.42;100852.44;5014149;28;45393;-77
2021/05/23 03:19:56;;;;;;;;;0.00;0.00;;;;;13.15;57.55;100850.69;5015871;28;46008;-77
2021/05/23 03:22:22;;;;;;;;;1.00;1.00;;;;;13.15;57.89;100861.34;5016396;28;45889;-77
2021/05/23 03:24:47;;;;;;;;;1.00;1.00;;;;;13.14;57.75;100858.72;5016171;28;45982;-77
2021/05/23 03:27:13;;;;;;;;;0.33;0.33;;;;;13.12;58.10;100850.78;5014645;28;45688;-77
2021/05/23 03:29:38;;;;;;;;;1.00;1.00;;;;;13.13;58.25;100859.66;5016030;28;45958;-76
2021/05/23 03:32:04;;;;;;;;;1.00;1.00;;;;;13.14;58.04;100856.06;5015972;28;45570;-77
2021/05/23 03:34:29;;;;;;;;;0.00;0.00;;;;;13.14;57.94;100859.59;5014856;28;46685;-76
2021/05/23 03:36:54;;;;;;;;;0.00;0.00;;;;;13.16;58.37;100859.53;5013929;28;46158;-77
2021/05/23 03:39:20;;;;;;;;;0.00;0.00;;;;;13.16;58.19;100856.88;5015746;28;45605;-76
2021/05/23 03:41:45;;;;;;;;;0.67;0.67;;;;;13.18;57.84;100860.38;5014151;28;45498;-77
2021/05/23 03:44:11;;;;;;;;;0.00;0.00;;;;;13.16;58.39;100867.53;5015993;28;45496;-76
2021/05/23 03:46:36;;;;;;;;;0.00;0.00;;;;;13.15;58.27;100863.13;5013346;28;45708;-77
2021/05/23 03:49:02;;;;;;;;;0.00;0.00;;;;;13.13;57.93;100865.84;5014374;28;45467;-76
2021/05/23 03:51:28;;;;;;;;;0.00;0.00;;;;;13.16;58.46;100875.53;5015289;28;45604;-77
2021/05/23 03:53:53;;;;;;;;;0.00;0.00;;;;;13.18;58.25;100868.34;5013978;28;48410;-78
2021/05/23 03:56:19;;;;;;;;;0.33;0.33;;;;;13.18;58.31;100879.03;5015084;28;45472;-75
2021/05/23 03:58:44;;;;;;;;;0.00;0.00;;;;;13.19;58.34;100887.00;5015923;28;45973;-75
2021/05/23 04:01:10;;;;;;;;;0.67;0.67;;;;;13.22;58.14;100881.59;5012287;28;45544;-77
2021/05/23 04:03:35;;;;;;;;;2.00;1.00;;;;;13.20;58.48;100880.75;5013861;28;45729;-77
2021/05/23 04:06:00;;;;;;;;;1.00;1.00;;;;;13.20;58.31;100883.41;5013047;28;45545;-75
2021/05/23 04:08:25;;;;;;;;;0.00;0.00;;;;;13.23;58.28;100885.13;5015401;28;45437;-77
2021/05/23 04:11:04;;;;;;;;;0.33;0.33;;;;;13.24;58.01;100886.88;5015129;28;45553;-76
2021/05/23 04:13:31;;;;;;;;;1.00;1.00;;;;;13.22;58.43;100884.28;5015536;28;45517;-76
2021/05/23 04:15:57;;;;;;;;;0.00;0.00;;;;;13.23;58.05;100883.34;5012897;28;45838;-75
2021/05/23 04:18:22;;;;;;;;;0.00;0.00;;;;;13.21;58.46;100881.63;5013277;28;45367;-77
2021/05/23 04:20:48;;;;;;;;;0.00;0.00;;;;;13.20;57.75;100890.53;5013349;28;45560;-77
2021/05/23 04:23:13;;;;;;;;;1.00;1.00;;;;;13.20;58.63;100893.19;5013170;28;48082;-77
2021/05/23 04:25:38;;;;;;;;;0.00;0.00;;;;;13.21;58.52;100897.59;5014278;28;45601;-76
2021/05/23 04:28:04;;;;;;;;;1.00;1.00;;;;;13.21;58.49;100890.53;5013557;28;45667;-76
2021/05/23 04:30:30;;;;;;;;;0.00;0.00;;;;;13.21;58.56;100895.84;5009811;28;45980;-75
2021/05/23 04:32:57;;;;;;;;;1.33;0.67;;;;;13.18;58.87;100898.59;5016972;28;47398;-77
2021/05/23 04:35:23;;;;;;;;;0.00;0.00;;;;;13.15;58.74;100897.78;5013062;28;45497;-77
2021/05/23 04:37:49;;;;;;;;;1.00;1.00;;;;;13.11;59.01;100905.00;5014424;28;45398;-76
2021/05/23 04:40:16;;;;;;;;;1.00;1.00;;;;;13.05;58.66;100902.50;5012613;28;46235;-76
2021/05/23 04:42:42;;;;;;;;;0.33;0.33;;;;;13.01;58.41;100898.19;5010034;28;45632;-79
2021/05/23 04:45:08;;;;;;;;;1.50;0.50;;;;;13.02;59.40;100913.25;5014120;28;45613;-76
2021/05/23 04:47:35;;;;;;;;;0.00;0.00;;;;;12.98;59.48;100911.59;5010186;28;45446;-76
2021/05/23 04:50:02;;;;;;;;;0.00;0.00;;;;;12.99;59.30;100924.00;5012903;28;45759;-76
2021/05/23 04:52:27;;;;;;;;;1.33;0.33;;;;;13.01;59.02;100921.28;5012652;28;48773;-73
2021/05/23 04:54:52;;;;;;;;;2.50;1.00;;;;;12.98;59.96;100926.69;5013729;28;45471;-76
2021/05/23 04:57:18;;;;;;;;;1.00;1.00;;;;;12.93;59.64;100925.03;5013546;28;45518;-78
2021/05/23 04:59:43;;;;;;;;;1.67;1.67;;;;;12.93;59.85;100924.16;5005774;28;45534;-77
2021/05/23 05:02:09;;;;;;;;;2.33;2.33;;;;;12.91;59.59;100926.84;5007022;28;46408;-78
2021/05/23 05:04:34;;;;;;;;;1.00;1.00;;;;;12.87;60.48;100940.31;5010932;28;45536;-77
2021/05/23 05:07:00;;;;;;;;;0.00;0.00;;;;;12.89;60.48;100943.81;5011863;28;45455;-76
2021/05/23 05:09:26;;;;;;;;;1.67;1.67;;;;;12.91;59.97;100947.28;5011874;28;45431;-77
2021/05/23 05:26:58;;;;;;;;;3.67;3.67;;;;;14.32;59.29;100954.56;5085207;27;45603;-68
2021/05/23 05:29:23;;;;;;;;;2.00;2.00;;;;;14.19;58.10;100951.44;5049043;28;45561;-70
2021/05/23 05:31:49;;;;;;;;;1.00;1.00;;;;;13.98;58.10;100958.38;5074422;27;46050;-70
2021/05/23 05:34:15;;;;;;;;;1.00;1.00;;;;;13.79;58.11;100955.38;5049092;28;45429;-69
2021/05/23 05:36:40;;;;;;;;;1.67;1.67;;;;;13.69;58.34;100955.72;5046640;28;46348;-69
2021/05/23 05:39:06;;;;;;;;;3.00;3.00;;;;;13.54;58.49;100965.06;5048590;28;45456;-69
2021/05/23 05:41:31;;;;;;;;;2.00;2.00;;;;;13.49;58.54;100967.00;5064667;27;45534;-69
2021/05/23 05:43:57;;;;;;;;;1.00;1.00;;;;;13.43;58.67;100970.69;5082435;27;45410;-68
2021/05/23 05:46:22;;;;;;;;;2.00;2.00;;;;;13.41;58.67;100972.53;5043856;28;45522;-68
2021/05/23 05:48:48;;;;;;;;;1.00;1.00;;;;;13.40;58.64;100969.91;5048148;28;45551;-69
2021/05/23 05:51:13;;;;;;;;;0.00;0.00;;;;;13.41;58.88;100974.34;5064594;28;45455;-69
2021/05/23 05:53:38;;;;;;;;;2.00;2.00;;;;;13.42;58.74;100970.75;5049592;28;45496;-70
2021/05/23 05:56:04;;;;;;;;;1.67;1.67;;;;;13.42;58.51;100971.63;5050717;28;48358;-71
2021/05/23 05:58:30;;;;;;;;;1.00;1.00;;;;;13.43;58.38;100969.81;5047340;28;45904;-70
2021/05/23 06:00:55;;;;;;;;;2.00;2.00;;;;;13.44;58.53;100979.56;5046718;28;45418;-73
2021/05/23 06:03:20;;;;;;;;;1.00;1.00;;;;;13.46;58.74;100980.41;5051008;28;45535;-69
2021/05/23 06:05:46;;;;;;;;;0.00;0.00;;;;;13.49;58.63;100985.66;5078027;27;48649;-69
2021/05/23 06:08:11;;;;;;;;;1.67;1.67;;;;;13.52;58.41;100981.09;5064167;28;45535;-69
2021/05/23 06:10:37;;;;;;;;;1.67;1.67;;;;;13.55;58.34;100994.34;5064221;28;45603;-69
2021/05/23 06:13:04;;;;;;;;;4.00;1.00;;;;;13.57;58.11;100983.63;5047379;28;45635;-68
2021/05/23 06:15:30;;;;;;;;;2.00;2.00;;;;;13.60;57.76;100990.69;5049610;28;47764;-68
2021/05/23 06:17:55;;;;;;;;;2.00;2.00;;;;;13.57;58.03;100980.06;5060577;28;45507;-69
2021/05/23 06:20:21;;;;;;;;;3.00;2.00;;;;;13.61;57.70;100987.97;5048144;28;45422;-68
2021/05/23 06:22:46;;;;;;;;;1.00;1.00;;;;;13.62;57.85;100975.50;5066310;27;45631;-68
2021/05/23 06:25:12;;;;;;;;;1.67;0.33;;;;;13.67;57.55;100977.09;5050675;28;46302;-69
2021/05/23 06:27:37;;;;;;;;;1.33;1.00;;;;;13.70;57.74;100982.31;5049524;28;45330;-68
2021/05/23 06:30:08;;;;;;;;;0.67;0.67;;;;;13.73;57.63;100984.94;5055983;28;45467;-68
2021/05/23 06:32:33;;;;;;;;;1.00;1.00;;;;;13.75;57.34;100984.88;5045494;28;45407;-68
2021/05/23 06:34:59;;;;;;;;;0.33;0.33;;;;;13.77;57.46;100985.69;5065707;28;48215;-69
2021/05/23 06:37:24;;;;;;;;;0.00;0.00;;;;;13.77;57.34;100988.38;5055763;27;45911;-68
2021/05/23 06:39:50;;;;;;;;;2.00;2.00;;;;;13.76;57.37;100986.63;5036155;28;45417;-68
2021/05/23 06:42:15;;;;;;;;;2.00;2.00;;;;;13.81;57.16;100993.56;5038502;28;45536;-69
2021/05/23 06:44:41;;;;;;;;;1.00;1.00;;;;;13.87;56.68;100996.97;5042803;28;46062;-68
2021/05/23 06:47:06;;;;;;;;;2.00;2.00;;;;;13.87;56.86;100992.50;5050967;28;45425;-67
2021/05/23 06:49:32;;;;;;;;;0.00;0.00;;;;;13.89;56.58;100990.66;5036141;28;45438;-68
2021/05/23 06:51:59;;;;;;;;;0.00;0.00;;;;;13.89;56.76;100987.13;5037720;28;45618;-68
2021/05/23 06:54:24;;;;;;;;;1.00;1.00;;;;;13.89;56.76;100988.00;5032274;28;48365;-68
2021/05/23 06:56:50;;;;;;;;;1.00;1.00;;;;;13.96;56.69;100994.00;5036993;28;45901;-68
2021/05/23 06:59:15;;;;;;;;;1.00;1.00;;;;;13.97;56.75;100993.06;5036476;28;45373;-68
2021/05/23 07:01:40;;;;;;;;;0.33;0.33;;;;;13.91;56.75;100980.81;5046395;27;45593;-68
2021/05/23 07:04:06;;;;;;;;;0.00;0.00;;;;;13.93;56.63;100992.31;5038017;28;45600;-68
2021/05/23 07:06:31;;;;;;;;;2.00;2.00;;;;;13.94;56.77;100998.50;5030519;28;45306;-68
2021/05/23 07:08:57;;;;;;;;;2.33;1.00;;;;;13.96;56.52;100996.66;5035934;28;45438;-68
2021/05/23 07:11:22;;;;;;;;;1.00;1.00;;;;;13.98;56.29;101002.84;5036709;28;45578;-68
2021/05/23 07:13:48;;;;;;;;;1.33;1.33;;;;;13.99;56.38;101007.25;5045047;28;47873;-68
2021/05/23 07:16:13;;;;;;;;;1.00;1.00;;;;;13.96;56.07;101000.19;5032380;28;46279;-67
2021/05/23 07:18:39;;;;;;;;;1.67;0.67;;;;;13.97;56.14;101001.94;5038267;28;45466;-68
2021/05/23 07:21:05;;;;;;;;;1.33;1.33;;;;;13.97;56.03;100995.75;5052215;28;45496;-68
2021/05/23 07:23:30;;;;;;;;;1.00;1.00;;;;;13.93;56.07;101002.97;5036482;28;45445;-68
2021/05/23 07:25:56;;;;;;;;;1.00;1.00;;;;;13.94;56.21;101007.38;5034974;28;45485;-68
2021/05/23 07:28:22;;;;;;;;;0.33;0.33;;;;;13.93;56.03;100994.97;5035692;28;45459;-70
2021/05/23 07:30:48;;;;;;;;;1.67;1.67;;;;;14.00;56.01;101006.34;5036454;28;45525;-67
2021/05/23 07:33:17;;;;;;;;;2.00;1.67;;;;;14.02;56.07;101005.38;5035551;28;47046;-69
2021/05/23 07:35:43;;;;;;;;;1.00;1.00;;;;;14.03;56.16;101003.56;5031812;28;46117;-69
2021/05/23 07:38:08;;;;;;;;;1.00;1.00;;;;;14.05;55.81;101005.25;5038838;28;45442;-69
2021/05/23 07:40:34;;;;;;;;;1.00;1.00;;;;;14.08;55.62;101005.16;5035509;28;45468;-68
2021/05/23 07:43:02;;;;;;;;;1.33;1.33;;;;;14.10;55.34;101010.44;5035336;28;47674;-68
2021/05/23 07:45:29;;;;;;;;;0.67;0.67;;;;;14.09;55.26;101006.91;5031523;28;45535;-68
2021/05/23 07:47:55;;;;;;;;;0.33;0.00;;;;;14.11;55.26;101012.22;5031611;28;45447;-68
2021/05/23 07:50:20;;;;;;;;;0.00;0.00;;;;;14.16;54.93;101010.25;5047153;28;45418;-67
2021/05/23 07:52:46;;;;;;;;;0.67;0.67;;;;;14.19;54.88;101023.50;5046368;28;48139;-68
2021/05/23 07:55:12;;;;;;;;;0.00;0.00;;;;;14.19;54.68;101012.84;5050662;27;45609;-68
2021/05/23 07:57:38;;;;;;;;;1.00;1.00;;;;;14.21;54.76;101020.78;5037610;27;45408;-67
2021/05/23 08:00:05;;;;;;;;;0.00;0.00;;;;;14.34;54.61;101023.00;5036672;28;45672;-67
2021/05/23 08:02:31;;;;;;;;;2.33;0.00;;;;;14.44;54.20;101028.97;5050985;27;45417;-68
2021/05/23 08:04:56;;;;;;;;;2.00;2.00;;;;;14.49;53.95;101026.16;5024838;28;45454;-68
2021/05/23 08:07:22;;;;;;;;;1.00;1.00;;;;;14.49;54.00;101029.72;5032467;28;45345;-67
2021/05/23 08:09:47;;;;;;;;;2.00;2.00;;;;;14.53;54.08;101035.81;5053202;28;45468;-67
2021/05/23 08:12:12;;;;;;;;;1.00;1.00;;;;;14.63;53.82;101046.16;5037716;27;47068;-68
2021/05/23 08:14:38;;;;;;;;;1.00;1.00;;;;;14.70;53.73;101047.66;5042286;28;45967;-68
2021/05/23 08:17:03;;;;;;;;;2.00;2.00;;;;;14.70;53.63;101042.31;5043610;28;45649;-68
2021/05/23 08:19:29;;;;;;;;;1.67;1.67;;;;;14.76;53.35;101046.59;5029821;28;45417;-68
2021/05/23 08:21:55;;;;;;;;;1.00;1.00;;;;;14.77;52.90;101048.34;5022561;28;46460;-69
2021/05/23 08:24:20;;;;;;;;;0.00;0.00;;;;;14.82;52.87;101054.41;5040228;28;46391;-68
2021/05/23 08:26:46;;;;;;;;;1.67;1.00;;;;;14.90;52.43;101063.03;5056097;28;45397;-68
2021/05/23 08:29:11;;;;;;;;;1.00;1.00;;;;;14.97;52.35;101051.19;5051300;27;45409;-68
2021/05/23 08:31:37;;;;;;;;;3.00;2.00;;;;;15.01;52.28;101050.19;5035299;28;45659;-70
2021/05/23 08:34:02;;;;;;;;;0.67;0.67;;;;;15.00;52.09;101055.59;5051397;28;45982;-69
2021/05/23 08:36:28;;;;;;;;;1.33;1.00;;;;;15.01;52.09;101047.53;5035963;28;45604;-68
2021/05/23 08:38:53;;;;;;;;;0.33;0.33;;;;;15.07;51.62;101051.75;5038436;28;45490;-69
2021/05/23 08:41:20;;;;;;;;;3.00;1.00;;;;;15.11;51.30;101048.03;5034358;28;47340;-68
2021/05/23 08:43:47;;;;;;;;;0.67;0.67;;;;;15.14;51.53;101045.28;5033745;28;45573;-70
2021/05/23 08:46:13;;;;;;;;;0.67;0.67;;;;;15.20;51.68;101037.03;5046038;28;45620;-69
2021/05/23 08:48:40;;;;;;;;;0.00;0.00;;;;;15.30;51.48;101034.91;5050594;28;45428;-69
2021/05/23 08:51:06;;;;;;;;;1.00;1.00;;;;;15.40;50.95;101035.47;5035408;28;46121;-68
2021/05/23 08:53:31;;;;;;;;;1.67;1.67;;;;;15.43;51.12;101030.88;5033669;28;45695;-67
2021/05/23 08:55:58;;;;;;;;;1.67;1.67;;;;;15.40;50.54;101028.31;5033440;28;45497;-70
2021/05/23 08:58:27;;;;;;;;;1.00;1.00;;;;;15.38;50.96;101031.97;5038609;28;45338;-70
2021/05/23 09:00:53;;;;;;;;;1.33;1.33;;;;;15.36;50.44;101029.31;5037726;28;45417;-70
2021/05/23 09:03:19;;;;;;;;;0.33;0.33;;;;;15.29;50.35;101031.38;5050433;27;45505;-68
2021/05/23 09:05:55;;;;;;;;;3.67;1.00;;;;;15.28;50.32;101037.66;5039646;28;45379;-69
2021/05/23 09:08:24;;;;;;;;;1.00;1.00;;;;;15.23;50.54;101031.56;5032793;28;45611;-68
2021/05/23 09:10:53;;;;;;;;;1.00;1.00;;;;;15.26;50.44;101023.47;5032209;28;48165;-69
2021/05/23 09:13:32;;;;;;;;;1.00;1.00;;;;;15.36;49.92;101023.97;5050216;27;45397;-69
2021/05/23 09:16:03;;;;;;;;;1.00;1.00;;;;;15.46;49.94;101027.19;5033519;28;45492;-69
2021/05/23 09:18:53;;;;;;;;;2.00;0.00;;;;;15.56;50.04;101032.16;5049417;28;45422;-68
2021/05/23 09:21:27;;;;;;;;;1.00;1.00;;;;;15.60;49.83;101030.25;5050199;27;48249;-70
2021/05/23 09:23:55;;;;;;;;;1.33;1.33;;;;;15.57;49.49;101035.69;5033534;28;45478;-69
2021/05/23 09:26:27;;;;;;;;;1.33;1.33;;;;;15.53;47.93;101044.78;5036659;27;45394;-69
2021/05/23 09:28:54;;;;;;;;;2.33;1.00;;;;;15.49;47.55;101040.44;5033250;28;45617;-68
2021/05/23 09:31:24;;;;;;;;;1.00;1.00;;;;;15.45;47.87;101047.72;5048618;28;48622;-69
2021/05/23 09:33:52;;;;;;;;;0.00;0.00;;;;;15.47;48.15;101045.84;5033304;28;45462;-68
2021/05/23 09:36:20;;;;;;;;;0.67;0.67;;;;;15.57;48.27;101038.38;5049656;28;46084;-69
2021/05/23 09:39:03;;;;;;;;;2.00;1.00;;;;;15.68;48.43;101048.72;5036684;28;45556;-70
2021/05/23 09:41:36;;;;;;;;;1.67;1.67;;;;;15.71;47.96;101045.91;5032913;28;45911;-69
2021/05/23 09:44:17;;;;;;;;;2.00;2.00;;;;;15.72;47.64;101043.19;5028187;28;45414;-69
2021/05/23 09:46:50;;;;;;;;;0.00;0.00;;;;;15.77;47.76;101032.31;5024718;28;45355;-69
2021/05/23 09:49:16;;;;;;;;;1.00;1.00;;;;;15.85;47.69;101039.09;5042377;28;45504;-69
2021/05/23 09:51:55;;;;;;;;;0.67;0.67;;;;;15.97;47.08;101026.19;5032981;28;47337;-69
2021/05/23 09:54:23;;;;;;;;;0.00;0.00;;;;;16.00;47.21;101043.00;5049708;28;45496;-69
2021/05/23 09:56:49;;;;;;;;;1.00;1.00;;;;;16.03;46.95;101036.66;5032203;28;45324;-70
2021/05/23 09:59:22;;;;;;;;;1.67;1.00;;;;;16.05;46.87;101035.66;5051336;28;45326;-69
2021/05/23 10:01:48;;;;;;;;;1.33;1.33;;;;;16.13;46.64;101055.00;5033007;28;47830;-71
2021/05/23 10:04:22;;;;;;;;;0.00;0.00;;;;;16.12;46.35;101039.84;5034576;28;45326;-70
2021/05/23 10:07:11;;;;;;;;;1.00;1.00;;;;;16.19;46.37;101060.09;5049590;27;45443;-68
2021/05/23 10:09:38;;;;;;;;;1.33;1.33;;;;;16.23;46.38;101041.22;5032536;28;45607;-70
2021/05/23 10:12:09;;;;;;;;;1.00;1.00;;;;;16.24;46.37;101041.16;5033592;28;47351;-70
2021/05/23 10:14:35;;;;;;;;;0.00;0.00;;;;;16.29;46.95;101039.19;5037679;28;45420;-68
2021/05/23 10:17:02;;;;;;;;;2.00;2.00;;;;;16.43;46.33;101044.84;5053167;28;45350;-69
2021/05/23 10:19:30;;;;;;;;;0.67;0.00;;;;;16.61;45.47;101047.69;5036095;28;45388;-69
2021/05/23 10:21:58;;;;;;;;;1.00;1.00;;;;;16.74;45.53;101054.31;5037824;28;46131;-69
2021/05/23 10:24:32;;;;;;;;;1.00;1.00;;;;;16.82;45.64;101051.34;5034794;28;45461;-69
2021/05/23 10:27:05;;;;;;;;;1.00;1.00;;;;;16.92;45.83;101058.06;5037535;28;45397;-69
2021/05/23 10:29:33;;;;;;;;;0.00;0.00;;;;;16.91;45.30;101059.00;5034843;28;45521;-69
2021/05/23 10:32:13;;;;;;;;;0.33;0.33;;;;;16.87;44.71;101060.03;5036555;28;48118;-68
2021/05/23 10:34:46;;;;;;;;;2.00;0.00;;;;;16.84;44.97;101054.81;5054796;27;45595;-67
2021/05/23 10:37:13;;;;;;;;;1.00;1.00;;;;;16.91;44.62;101049.16;5030483;28;45453;-69
2021/05/23 10:39:43;;;;;;;;;1.33;1.33;;;;;16.98;44.86;101050.59;5038822;28;45468;-67
2021/05/23 10:42:13;;;;;;;;;0.67;0.67;;;;;17.04;44.60;101057.53;5035608;28;45491;-68
2021/05/23 10:44:47;;;;;;;;;1.00;1.00;;;;;17.05;44.30;101053.91;5037311;28;45434;-68
2021/05/23 10:47:17;;;;;;;;;0.00;0.00;;;;;17.08;44.65;101053.78;5034497;28;45613;-68
2021/05/23 10:50:09;;;;;;;;;2.00;2.00;;;;;17.08;43.81;101053.78;5035062;28;45642;-68
2021/05/23 10:52:39;;;;;;;;;2.00;1.00;;;;;17.10;44.41;101048.34;5036594;28;47617;-69
2021/05/23 10:55:12;;;;;;;;;2.33;2.00;;;;;17.15;44.46;101052.59;5035500;28;45841;-69
2021/05/23 10:57:49;;;;;;;;;1.33;1.33;;;;;17.22;44.08;101064.78;5036482;28;46282;-69
2021/05/23 11:00:36;;;;;;;;;1.00;1.00;;;;;17.26;43.44;101052.09;5024057;28;45570;-69
2021/05/23 11:03:24;;;;;;;;;1.00;1.00;;;;;17.26;43.52;101052.97;5036167;28;45998;-68
2021/05/23 11:06:05;;;;;;;;;0.00;0.00;;;;;17.28;43.11;101044.88;5022513;28;45958;-69
2021/05/23 11:08:32;;;;;;;;;1.00;1.00;;;;;17.30;43.10;101049.22;5052665;28;45441;-69
2021/05/23 11:10:58;;;;;;;;;2.00;2.00;;;;;17.32;43.08;101050.03;5052244;28;45510;-68
2021/05/23 11:13:29;;;;;;;;;1.00;1.00;;;;;17.38;43.41;101054.22;5037073;28;46477;-69
2021/05/23 11:15:55;;;;;;;;;1.00;1.00;;;;;17.46;43.24;101044.03;5052535;28;45346;-68
2021/05/23 11:18:27;;;;;;;;;2.00;2.00;;;;;17.53;43.02;101039.25;5046149;27;45434;-69
2021/05/23 11:21:00;;;;;;;;;1.67;1.67;;;;;17.62;43.00;101046.91;5052065;28;45969;-68
2021/05/23 11:23:27;;;;;;;;;0.33;0.33;;;;;17.69;42.77;101036.78;5052345;28;47530;-68
2021/05/23 11:26:07;;;;;;;;;1.00;1.00;;;;;17.73;41.28;101022.28;5047409;28;45465;-68
2021/05/23 11:28:33;;;;;;;;;0.00;0.00;;;;;17.72;42.43;101031.28;5035132;28;45535;-69
2021/05/23 11:30:59;;;;;;;;;1.00;1.00;;;;;17.75;42.91;101039.19;5036851;28;45386;-69
2021/05/23 11:33:24;;;;;;;;;2.00;1.00;;;;;17.76;42.66;101038.25;5051960;28;47894;-68
2021/05/23 11:35:52;;;;;;;;;0.00;0.00;;;;;17.71;42.61;101038.47;5051202;28;45413;-68
2021/05/23 11:38:19;;;;;;;;;0.33;0.33;;;;;17.62;42.12;101028.97;5044287;28;45383;-69
2021/05/23 11:40:44;;;;;;;;;1.67;0.67;;;;;17.54;41.93;101033.84;5038228;28;45588;-69